sensor_id;sensor_type;location;lat;lon;timestamp;temperature;humidity
43015;DHT22;28637;50.554;7.032;2023-03-12T00:02:36;1.20;99.90
43015;DHT22;28637;50.554;7.032;2023-03-12T00:07:37;1.80;99.90
43015;DHT22;28637;50.554;7.032;2023-03-12T00:12:39;1.30;99.90
43015;DHT22;28637;50.554;7.032;2023-03-12T00:17:39;1.30;99.90
43015;DHT22;28637;50.554;7.032;2023-03-12T00:22:40;1.40;99.90
43015;DHT22;28637;50.554;7.032;2023-03-12T00:27:41;1.40;99.90
43015;DHT22;28637;50.554;7.032;2023-03-12T00:32:42;1.50;99.90
43015;DHT22;28637;50.554;7.032;2023-03-12T00:37:43;1.50;99.90
43015;DHT22;28637;50.554;7.032;2023-03-12T00:42:43;1.60;99.90
43015;DHT22;28637;50.554;7.032;2023-03-12T00:47:44;1.60;99.90
43015;DHT22;28637;50.554;7.032;2023-03-12T00:52:45;1.70;99.90
43015;DHT22;28637;50.554;7.032;2023-03-12T00:57:46;1.70;99.90
43015;DHT22;28637;50.554;7.032;2023-03-12T01:02:46;1.80;99.90
43015;DHT22;28637;50.554;7.032;2023-03-12T01:07:47;1.80;99.90
43015;DHT22;28637;50.554;7.032;2023-03-12T01:12:48;1.80;99.90
43015;DHT22;28637;50.554;7.032;2023-03-12T01:17:49;1.90;99.90
43015;DHT22;28637;50.554;7.032;2023-03-12T01:22:49;1.80;99.90
43015;DHT22;28637;50.554;7.032;2023-03-12T01:27:50;1.80;99.90
43015;DHT22;28637;50.554;7.032;2023-03-12T01:32:52;1.90;99.90
43015;DHT22;28637;50.554;7.032;2023-03-12T01:37:52;1.90;99.90
43015;DHT22;28637;50.554;7.032;2023-03-12T01:42:56;1.80;99.90
43015;DHT22;28637;50.554;7.032;2023-03-12T01:47:57;1.70;99.90
43015;DHT22;28637;50.554;7.032;2023-03-12T01:52:58;1.80;99.90
43015;DHT22;28637;50.554;7.032;2023-03-12T01:58:00;1.80;99.90
43015;DHT22;28637;50.554;7.032;2023-03-12T02:03:06;1.90;99.90
43015;DHT22;28637;50.554;7.032;2023-03-12T02:08:07;1.90;99.90
43015;DHT22;28637;50.554;7.032;2023-03-12T02:13:07;1.90;99.90
43015;DHT22;28637;50.554;7.032;2023-03-12T02:18:10;2.00;99.90
43015;DHT22;28637;50.554;7.032;2023-03-12T02:28:19;2.00;99.90
43015;DHT22;28637;50.554;7.032;2023-03-12T02:33:22;2.00;99.90
43015;DHT22;28637;50.554;7.032;2023-03-12T02:43:39;2.00;99.90
43015;DHT22;28637;50.554;7.032;2023-03-12T02:48:40;2.00;99.90
43015;DHT22;28637;50.554;7.032;2023-03-12T02:53:41;2.00;99.90
43015;DHT22;28637;50.554;7.032;2023-03-12T02:58:41;2.00;99.90
43015;DHT22;28637;50.554;7.032;2023-03-12T03:03:43;2.10;99.90
43015;DHT22;28637;50.554;7.032;2023-03-12T03:08:43;2.00;99.90
43015;DHT22;28637;50.554;7.032;2023-03-12T03:13:44;1.90;99.90
43015;DHT22;28637;50.554;7.032;2023-03-12T03:18:45;2.00;99.90
43015;DHT22;28637;50.554;7.032;2023-03-12T03:23:48;2.20;99.90
43015;DHT22;28637;50.554;7.032;2023-03-12T03:28:49;2.30;99.90
43015;DHT22;28637;50.554;7.032;2023-03-12T03:33:50;2.40;99.90
43015;DHT22;28637;50.554;7.032;2023-03-12T03:38:51;2.40;99.90
43015;DHT22;28637;50.554;7.032;2023-03-12T03:43:56;2.50;99.90
43015;DHT22;28637;50.554;7.032;2023-03-12T03:48:57;2.50;99.90
43015;DHT22;28637;50.554;7.032;2023-03-12T03:53:58;2.50;99.90
43015;DHT22;28637;50.554;7.032;2023-03-12T03:59:02;2.70;99.90
43015;DHT22;28637;50.554;7.032;2023-03-12T04:04:03;2.90;99.90
43015;DHT22;28637;50.554;7.032;2023-03-12T04:09:04;3.00;99.90
43015;DHT22;28637;50.554;7.032;2023-03-12T04:14:05;3.10;99.90
43015;DHT22;28637;50.554;7.032;2023-03-12T04:19:05;3.10;99.90
43015;DHT22;28637;50.554;7.032;2023-03-12T04:24:07;3.10;99.90
43015;DHT22;28637;50.554;7.032;2023-03-12T04:29:12;3.10;99.90
43015;DHT22;28637;50.554;7.032;2023-03-12T04:34:13;3.10;99.90
43015;DHT22;28637;50.554;7.032;2023-03-12T04:39:19;3.30;99.90
43015;DHT22;28637;50.554;7.032;2023-03-12T04:44:20;3.20;99.90
43015;DHT22;28637;50.554;7.032;2023-03-12T04:49:21;3.20;99.90
43015;DHT22;28637;50.554;7.032;2023-03-12T04:54:22;3.20;99.90
43015;DHT22;28637;50.554;7.032;2023-03-12T04:59:22;3.00;99.90
43015;DHT22;28637;50.554;7.032;2023-03-12T05:04:23;3.00;99.90
43015;DHT22;28637;50.554;7.032;2023-03-12T05:09:24;3.00;99.90
43015;DHT22;28637;50.554;7.032;2023-03-12T05:14:24;3.00;99.90
43015;DHT22;28637;50.554;7.032;2023-03-12T05:19:25;3.00;99.90
43015;DHT22;28637;50.554;7.032;2023-03-12T05:24:26;2.90;99.90
43015;DHT22;28637;50.554;7.032;2023-03-12T05:29:27;2.90;99.90
43015;DHT22;28637;50.554;7.032;2023-03-12T05:34:29;2.80;99.90
43015;DHT22;28637;50.554;7.032;2023-03-12T05:39:29;2.90;99.90
43015;DHT22;28637;50.554;7.032;2023-03-12T05:44:30;2.90;99.90
43015;DHT22;28637;50.554;7.032;2023-03-12T05:49:31;2.90;99.90
43015;DHT22;28637;50.554;7.032;2023-03-12T05:54:32;2.90;99.90
43015;DHT22;28637;50.554;7.032;2023-03-12T05:59:33;2.90;99.90
43015;DHT22;28637;50.554;7.032;2023-03-12T06:04:34;3.00;99.90
43015;DHT22;28637;50.554;7.032;2023-03-12T06:09:35;3.00;99.90
43015;DHT22;28637;50.554;7.032;2023-03-12T06:14:35;3.10;99.90
43015;DHT22;28637;50.554;7.032;2023-03-12T06:19:36;3.00;99.90
43015;DHT22;28637;50.554;7.032;2023-03-12T06:24:36;3.10;99.90
43015;DHT22;28637;50.554;7.032;2023-03-12T06:29:37;3.10;99.90
43015;DHT22;28637;50.554;7.032;2023-03-12T06:34:38;3.30;99.90
43015;DHT22;28637;50.554;7.032;2023-03-12T06:39:39;3.40;99.90
43015;DHT22;28637;50.554;7.032;2023-03-12T06:44:39;3.70;99.90
43015;DHT22;28637;50.554;7.032;2023-03-12T06:49:40;3.10;99.90
43015;DHT22;28637;50.554;7.032;2023-03-12T06:54:41;2.90;99.90
43015;DHT22;28637;50.554;7.032;2023-03-12T06:59:42;2.80;99.90
43015;DHT22;28637;50.554;7.032;2023-03-12T07:09:43;2.70;99.90
43015;DHT22;28637;50.554;7.032;2023-03-12T07:14:44;2.80;99.90
43015;DHT22;28637;50.554;7.032;2023-03-12T07:19:45;2.80;99.90
43015;DHT22;28637;50.554;7.032;2023-03-12T07:24:45;2.80;99.90
43015;DHT22;28637;50.554;7.032;2023-03-12T07:29:46;2.80;99.90
43015;DHT22;28637;50.554;7.032;2023-03-12T07:34:47;2.90;99.90
43015;DHT22;28637;50.554;7.032;2023-03-12T07:39:47;3.00;99.90
43015;DHT22;28637;50.554;7.032;2023-03-12T07:44:52;3.10;99.90
43015;DHT22;28637;50.554;7.032;2023-03-12T07:49:53;3.20;99.90
43015;DHT22;28637;50.554;7.032;2023-03-12T07:54:54;3.40;99.90
43015;DHT22;28637;50.554;7.032;2023-03-12T07:59:55;3.60;99.90
43015;DHT22;28637;50.554;7.032;2023-03-12T08:04:56;3.70;99.90
43015;DHT22;28637;50.554;7.032;2023-03-12T08:10:00;3.70;99.90
43015;DHT22;28637;50.554;7.032;2023-03-12T08:15:02;3.70;99.90
43015;DHT22;28637;50.554;7.032;2023-03-12T08:20:03;3.70;99.90
43015;DHT22;28637;50.554;7.032;2023-03-12T08:25:05;3.80;99.90
43015;DHT22;28637;50.554;7.032;2023-03-12T08:30:07;3.80;99.90
43015;DHT22;28637;50.554;7.032;2023-03-12T08:35:08;3.80;99.90
43015;DHT22;28637;50.554;7.032;2023-03-12T08:40:10;3.90;99.90
43015;DHT22;28637;50.554;7.032;2023-03-12T08:45:13;4.00;99.90
43015;DHT22;28637;50.554;7.032;2023-03-12T08:50:15;4.10;99.90
43015;DHT22;28637;50.554;7.032;2023-03-12T08:55:16;4.20;99.90
43015;DHT22;28637;50.554;7.032;2023-03-12T09:00:17;4.40;99.90
43015;DHT22;28637;50.554;7.032;2023-03-12T09:05:18;4.50;99.90
43015;DHT22;28637;50.554;7.032;2023-03-12T09:10:19;4.70;99.90
43015;DHT22;28637;50.554;7.032;2023-03-12T09:15:21;4.80;99.90
43015;DHT22;28637;50.554;7.032;2023-03-12T09:20:22;4.90;99.90
43015;DHT22;28637;50.554;7.032;2023-03-12T09:25:23;5.20;99.90
43015;DHT22;28637;50.554;7.032;2023-03-12T09:30:24;5.50;99.90
43015;DHT22;28637;50.554;7.032;2023-03-12T09:35:26;5.80;99.90
43015;DHT22;28637;50.554;7.032;2023-03-12T09:40:30;6.00;99.90
43015;DHT22;28637;50.554;7.032;2023-03-12T09:45:38;6.40;99.90
43015;DHT22;28637;50.554;7.032;2023-03-12T09:50:42;6.70;99.90
43015;DHT22;28637;50.554;7.032;2023-03-12T09:55:47;7.00;99.90
43015;DHT22;28637;50.554;7.032;2023-03-12T10:00:48;7.40;99.90
43015;DHT22;28637;50.554;7.032;2023-03-12T10:11:05;7.90;99.90
43015;DHT22;28637;50.554;7.032;2023-03-12T10:26:51;8.20;99.90
43015;DHT22;28637;50.554;7.032;2023-03-12T10:32:21;8.10;99.90
43015;DHT22;28637;50.554;7.032;2023-03-12T10:43:00;8.20;99.90
43015;DHT22;28637;50.554;7.032;2023-03-12T10:48:07;8.30;99.90
43015;DHT22;28637;50.554;7.032;2023-03-12T10:53:23;8.40;99.90
43015;DHT22;28637;50.554;7.032;2023-03-12T10:58:34;8.50;99.90
43015;DHT22;28637;50.554;7.032;2023-03-12T11:03:36;9.00;99.90
43015;DHT22;28637;50.554;7.032;2023-03-12T11:08:37;9.20;99.90
43015;DHT22;28637;50.554;7.032;2023-03-12T11:13:40;9.50;99.90
43015;DHT22;28637;50.554;7.032;2023-03-12T11:29:29;11.30;99.90
43015;DHT22;28637;50.554;7.032;2023-03-12T11:34:34;11.20;99.90
43015;DHT22;28637;50.554;7.032;2023-03-12T12:01:12;10.90;99.90
43015;DHT22;28637;50.554;7.032;2023-03-12T12:06:43;11.20;99.90
43015;DHT22;28637;50.554;7.032;2023-03-12T12:27:35;11.30;99.90
43015;DHT22;28637;50.554;7.032;2023-03-12T12:38:29;11.40;99.90
43015;DHT22;28637;50.554;7.032;2023-03-12T12:43:39;11.40;99.90
43015;DHT22;28637;50.554;7.032;2023-03-12T12:53:55;11.60;99.90
43015;DHT22;28637;50.554;7.032;2023-03-12T12:59:06;11.50;99.90
43015;DHT22;28637;50.554;7.032;2023-03-12T13:04:12;11.60;99.90
43015;DHT22;28637;50.554;7.032;2023-03-12T13:09:19;11.70;99.90
43015;DHT22;28637;50.554;7.032;2023-03-12T13:14:35;11.70;99.90
43015;DHT22;28637;50.554;7.032;2023-03-12T13:19:39;11.60;99.90
43015;DHT22;28637;50.554;7.032;2023-03-12T13:30:47;11.10;99.90
43015;DHT22;28637;50.554;7.032;2023-03-12T13:41:33;11.10;99.90
43015;DHT22;28637;50.554;7.032;2023-03-12T13:46:39;10.90;99.90
43015;DHT22;28637;50.554;7.032;2023-03-12T13:51:52;11.10;99.90
43015;DHT22;28637;50.554;7.032;2023-03-12T13:57:01;11.20;99.90
43015;DHT22;28637;50.554;7.032;2023-03-12T14:02:07;11.30;99.90
43015;DHT22;28637;50.554;7.032;2023-03-12T14:07:48;11.40;99.90
43015;DHT22;28637;50.554;7.032;2023-03-12T14:13:06;11.50;99.90
43015;DHT22;28637;50.554;7.032;2023-03-12T14:18:23;11.40;99.90
43015;DHT22;28637;50.554;7.032;2023-03-12T14:23:32;11.50;99.90
43015;DHT22;28637;50.554;7.032;2023-03-12T14:28:40;11.60;99.90
43015;DHT22;28637;50.554;7.032;2023-03-12T14:39:31;11.50;99.90
43015;DHT22;28637;50.554;7.032;2023-03-12T14:44:29;11.40;99.90
43015;DHT22;28637;50.554;7.032;2023-03-12T14:49:30;11.20;99.90
43015;DHT22;28637;50.554;7.032;2023-03-12T14:54:31;11.10;99.90
43015;DHT22;28637;50.554;7.032;2023-03-12T14:59:33;11.20;99.90
43015;DHT22;28637;50.554;7.032;2023-03-12T15:04:39;11.10;99.90
43015;DHT22;28637;50.554;7.032;2023-03-12T15:09:43;11.10;99.90
43015;DHT22;28637;50.554;7.032;2023-03-12T15:14:44;11.10;99.90
43015;DHT22;28637;50.554;7.032;2023-03-12T15:19:46;11.20;99.90
43015;DHT22;28637;50.554;7.032;2023-03-12T15:24:47;11.20;99.90
43015;DHT22;28637;50.554;7.032;2023-03-12T15:29:48;11.30;99.90
43015;DHT22;28637;50.554;7.032;2023-03-12T15:34:53;11.40;99.90
43015;DHT22;28637;50.554;7.032;2023-03-12T15:39:54;11.60;99.90
43015;DHT22;28637;50.554;7.032;2023-03-12T15:44:58;11.50;99.90
43015;DHT22;28637;50.554;7.032;2023-03-12T15:50:47;11.40;99.90
43015;DHT22;28637;50.554;7.032;2023-03-12T15:55:34;11.20;99.90
43015;DHT22;28637;50.554;7.032;2023-03-12T16:00:43;11.30;99.90
43015;DHT22;28637;50.554;7.032;2023-03-12T16:05:44;11.20;99.90
43015;DHT22;28637;50.554;7.032;2023-03-12T16:10:46;11.20;99.90
43015;DHT22;28637;50.554;7.032;2023-03-12T16:15:47;11.20;99.90
43015;DHT22;28637;50.554;7.032;2023-03-12T16:20:49;11.20;99.90
43015;DHT22;28637;50.554;7.032;2023-03-12T16:25:52;11.20;99.90
43015;DHT22;28637;50.554;7.032;2023-03-12T16:30:54;11.20;99.90
43015;DHT22;28637;50.554;7.032;2023-03-12T16:35:55;11.10;99.90
43015;DHT22;28637;50.554;7.032;2023-03-12T16:40:56;11.00;99.90
43015;DHT22;28637;50.554;7.032;2023-03-12T16:45:57;11.10;99.90
43015;DHT22;28637;50.554;7.032;2023-03-12T16:50:58;11.00;99.90
43015;DHT22;28637;50.554;7.032;2023-03-12T16:56:00;11.00;99.90
43015;DHT22;28637;50.554;7.032;2023-03-12T17:01:01;10.90;99.90
43015;DHT22;28637;50.554;7.032;2023-03-12T17:06:03;10.90;99.90
43015;DHT22;28637;50.554;7.032;2023-03-12T17:11:21;10.80;99.90
43015;DHT22;28637;50.554;7.032;2023-03-12T17:16:23;10.70;99.90
43015;DHT22;28637;50.554;7.032;2023-03-12T17:21:23;10.70;99.90
43015;DHT22;28637;50.554;7.032;2023-03-12T17:26:24;10.50;99.90
43015;DHT22;28637;50.554;7.032;2023-03-12T17:31:25;10.40;99.90
43015;DHT22;28637;50.554;7.032;2023-03-12T17:36:26;10.30;99.90
43015;DHT22;28637;50.554;7.032;2023-03-12T17:41:27;10.30;99.90
43015;DHT22;28637;50.554;7.032;2023-03-12T17:46:28;10.20;99.90
43015;DHT22;28637;50.554;7.032;2023-03-12T17:51:29;10.10;99.90
43015;DHT22;28637;50.554;7.032;2023-03-12T17:56:30;10.00;99.90
43015;DHT22;28637;50.554;7.032;2023-03-12T18:01:31;10.00;99.90
43015;DHT22;28637;50.554;7.032;2023-03-12T18:06:32;9.90;99.90
43015;DHT22;28637;50.554;7.032;2023-03-12T18:11:32;9.80;99.90
43015;DHT22;28637;50.554;7.032;2023-03-12T18:16:33;9.70;99.90
43015;DHT22;28637;50.554;7.032;2023-03-12T18:21:33;9.70;99.90
43015;DHT22;28637;50.554;7.032;2023-03-12T18:26:34;10.20;99.90
43015;DHT22;28637;50.554;7.032;2023-03-12T18:31:35;10.30;99.90
43015;DHT22;28637;50.554;7.032;2023-03-12T18:36:35;10.50;99.90
43015;DHT22;28637;50.554;7.032;2023-03-12T18:41:36;10.00;99.90
43015;DHT22;28637;50.554;7.032;2023-03-12T18:46:38;10.10;99.90
43015;DHT22;28637;50.554;7.032;2023-03-12T18:51:38;10.10;99.90
43015;DHT22;28637;50.554;7.032;2023-03-12T18:56:39;10.10;99.90
43015;DHT22;28637;50.554;7.032;2023-03-12T19:01:41;10.10;99.90
43015;DHT22;28637;50.554;7.032;2023-03-12T19:06:42;10.10;99.90
43015;DHT22;28637;50.554;7.032;2023-03-12T19:11:42;10.00;99.90
43015;DHT22;28637;50.554;7.032;2023-03-12T19:16:45;9.90;99.90
43015;DHT22;28637;50.554;7.032;2023-03-12T19:21:46;9.80;99.90
43015;DHT22;28637;50.554;7.032;2023-03-12T19:26:47;9.80;99.90
43015;DHT22;28637;50.554;7.032;2023-03-12T19:31:48;9.80;99.90
43015;DHT22;28637;50.554;7.032;2023-03-12T19:36:48;9.80;99.90
43015;DHT22;28637;50.554;7.032;2023-03-12T19:41:49;9.80;99.90
43015;DHT22;28637;50.554;7.032;2023-03-12T19:46:50;9.80;99.90
43015;DHT22;28637;50.554;7.032;2023-03-12T19:51:50;9.80;99.90
43015;DHT22;28637;50.554;7.032;2023-03-12T19:56:51;10.00;99.90
43015;DHT22;28637;50.554;7.032;2023-03-12T20:01:52;10.00;99.90
43015;DHT22;28637;50.554;7.032;2023-03-12T20:06:53;10.00;99.90
43015;DHT22;28637;50.554;7.032;2023-03-12T20:11:54;10.00;99.90
43015;DHT22;28637;50.554;7.032;2023-03-12T20:16:54;10.00;99.90
43015;DHT22;28637;50.554;7.032;2023-03-12T20:21:55;9.90;99.90
43015;DHT22;28637;50.554;7.032;2023-03-12T20:26:57;9.90;99.90
43015;DHT22;28637;50.554;7.032;2023-03-12T20:31:58;9.80;99.90
43015;DHT22;28637;50.554;7.032;2023-03-12T20:36:59;9.90;99.90
43015;DHT22;28637;50.554;7.032;2023-03-12T20:41:59;9.90;99.90
43015;DHT22;28637;50.554;7.032;2023-03-12T20:47:00;9.90;99.90
43015;DHT22;28637;50.554;7.032;2023-03-12T20:52:01;9.90;99.90
43015;DHT22;28637;50.554;7.032;2023-03-12T20:57:01;9.90;99.90
43015;DHT22;28637;50.554;7.032;2023-03-12T21:02:02;9.90;99.90
43015;DHT22;28637;50.554;7.032;2023-03-12T21:07:03;9.90;99.90
43015;DHT22;28637;50.554;7.032;2023-03-12T21:12:03;9.90;99.90
43015;DHT22;28637;50.554;7.032;2023-03-12T21:17:04;9.90;99.90
43015;DHT22;28637;50.554;7.032;2023-03-12T21:22:05;9.90;99.90
43015;DHT22;28637;50.554;7.032;2023-03-12T21:27:05;9.90;99.90
43015;DHT22;28637;50.554;7.032;2023-03-12T21:32:10;9.90;99.90
43015;DHT22;28637;50.554;7.032;2023-03-12T21:37:11;9.90;99.90
43015;DHT22;28637;50.554;7.032;2023-03-12T21:42:11;9.90;99.90
43015;DHT22;28637;50.554;7.032;2023-03-12T21:47:12;9.90;99.90
43015;DHT22;28637;50.554;7.032;2023-03-12T21:52:12;9.80;99.90
43015;DHT22;28637;50.554;7.032;2023-03-12T21:57:13;9.80;99.90
43015;DHT22;28637;50.554;7.032;2023-03-12T22:02:14;9.80;99.90
43015;DHT22;28637;50.554;7.032;2023-03-12T22:07:15;9.80;99.90
43015;DHT22;28637;50.554;7.032;2023-03-12T22:12:15;9.80;99.90
43015;DHT22;28637;50.554;7.032;2023-03-12T22:17:16;9.80;99.90
43015;DHT22;28637;50.554;7.032;2023-03-12T22:22:17;9.80;99.90
43015;DHT22;28637;50.554;7.032;2023-03-12T22:27:18;9.80;99.90
43015;DHT22;28637;50.554;7.032;2023-03-12T22:32:18;9.80;99.90
43015;DHT22;28637;50.554;7.032;2023-03-12T22:37:19;9.80;99.90
43015;DHT22;28637;50.554;7.032;2023-03-12T22:42:19;9.80;99.90
43015;DHT22;28637;50.554;7.032;2023-03-12T22:47:20;9.80;99.90
43015;DHT22;28637;50.554;7.032;2023-03-12T22:52:21;9.70;99.90
43015;DHT22;28637;50.554;7.032;2023-03-12T22:57:21;9.70;99.90
43015;DHT22;28637;50.554;7.032;2023-03-12T23:02:22;9.70;99.90
43015;DHT22;28637;50.554;7.032;2023-03-12T23:07:23;9.80;99.90
43015;DHT22;28637;50.554;7.032;2023-03-12T23:12:23;9.80;99.90
43015;DHT22;28637;50.554;7.032;2023-03-12T23:17:24;9.80;99.90
43015;DHT22;28637;50.554;7.032;2023-03-12T23:22:25;9.80;99.90
43015;DHT22;28637;50.554;7.032;2023-03-12T23:27:26;9.80;99.90
43015;DHT22;28637;50.554;7.032;2023-03-12T23:32:26;9.90;99.90
43015;DHT22;28637;50.554;7.032;2023-03-12T23:37:27;9.90;99.90
43015;DHT22;28637;50.554;7.032;2023-03-12T23:42:27;9.90;99.90
43015;DHT22;28637;50.554;7.032;2023-03-12T23:47:28;9.90;99.90
43015;DHT22;28637;50.554;7.032;2023-03-12T23:52:29;9.90;99.90
43015;DHT22;28637;50.554;7.032;2023-03-12T23:57:29;10.00;99.90
